createdAt,value
2017-02-02T00:00:13.156Z,-3.08
2017-02-02T00:01:26.422Z,-3.2
2017-02-02T00:02:39.421Z,-3.12
2017-02-02T00:03:52.464Z,-3.11
2017-02-02T00:05:05.458Z,-3.09
2017-02-02T00:06:18.458Z,-3.11
2017-02-02T00:07:31.498Z,-2.98
2017-02-02T00:08:44.523Z,-3.02
2017-02-02T00:09:57.549Z,-2.96
2017-02-02T00:11:09.814Z,-2.99
2017-02-02T00:12:22.816Z,-2.96
2017-02-02T00:13:35.831Z,-2.89
2017-02-02T00:14:48.826Z,-2.93
2017-02-02T00:16:01.823Z,-2.91
2017-02-02T00:17:14.873Z,-2.91
2017-02-02T00:18:27.894Z,-2.93
2017-02-02T00:19:40.910Z,-2.9
2017-02-02T00:20:53.911Z,-2.86
2017-02-02T00:22:06.958Z,-2.9
2017-02-02T00:23:19.603Z,-2.89
2017-02-02T00:24:32.623Z,-2.93
2017-02-02T00:25:45.643Z,-2.89
2017-02-02T00:26:58.660Z,-2.93
2017-02-02T00:28:11.662Z,-2.87
2017-02-02T00:29:24.655Z,-2.93
2017-02-02T00:30:37.677Z,-2.89
2017-02-02T00:31:50.695Z,-2.89
2017-02-02T00:33:03.692Z,-2.9
2017-02-02T00:34:16.567Z,-2.89
2017-02-02T00:35:29.599Z,-2.93
2017-02-02T00:36:42.631Z,-2.94
2017-02-02T00:37:55.649Z,-2.94
2017-02-02T00:39:08.649Z,-2.87
2017-02-02T00:40:21.891Z,-2.98
2017-02-02T00:41:34.917Z,-2.96
2017-02-02T00:42:47.938Z,-2.99
2017-02-02T00:44:00.982Z,-2.93
2017-02-02T00:45:13.627Z,-2.98
2017-02-02T00:46:26.671Z,-2.98
2017-02-02T00:47:39.691Z,-3.01
2017-02-02T00:48:52.718Z,-3.05
2017-02-02T00:50:05.377Z,-2.96
2017-02-02T00:51:18.386Z,-2.94
2017-02-02T00:52:31.426Z,-2.93
2017-02-02T00:53:44.445Z,-3.04
2017-02-02T00:54:57.444Z,-3.08
2017-02-02T00:56:09.682Z,-3.04
2017-02-02T00:57:21.904Z,-3.07
2017-02-02T00:58:34.933Z,-3.07
2017-02-02T00:59:47.951Z,-3.09
2017-02-02T01:01:00.973Z,-3.07
2017-02-02T01:02:13.622Z,-2.99
2017-02-02T01:03:26.630Z,-3.04
2017-02-02T01:04:39.634Z,-3.07
2017-02-02T01:05:52.630Z,-3.09
2017-02-02T01:07:05.879Z,-3.11
2017-02-02T01:08:18.915Z,-3.09
2017-02-02T01:09:31.947Z,-3.14
2017-02-02T01:10:44.982Z,-3.08
2017-02-02T01:11:57.989Z,-3.09
2017-02-02T01:13:10.635Z,-3.14
2017-02-02T01:14:23.651Z,-3.19
2017-02-02T01:15:36.673Z,-3.19
2017-02-02T01:16:49.669Z,-3.26
2017-02-02T01:18:02.696Z,-3.29
2017-02-02T01:19:14.559Z,-3.22
2017-02-02T01:20:27.205Z,-3.26
2017-02-02T01:21:40.228Z,-3.26
2017-02-02T01:22:53.282Z,-3.17
2017-02-02T01:24:06.298Z,-3.29
2017-02-02T01:25:18.968Z,-3.29
2017-02-02T01:26:31.995Z,-3.3
2017-02-02T01:27:45.011Z,-3.36
2017-02-02T01:28:58.294Z,-3.29
2017-02-02T01:30:11.304Z,-3.27
2017-02-02T01:31:24.344Z,-3.3
2017-02-02T01:32:37.367Z,-3.27
2017-02-02T01:33:50.414Z,-3.27
2017-02-02T01:35:03.435Z,-3.32
2017-02-02T01:36:16.082Z,-3.38
2017-02-02T01:37:29.128Z,-3.33
2017-02-02T01:38:42.174Z,-3.37
2017-02-02T01:39:55.461Z,-3.38
2017-02-02T01:41:08.489Z,-3.47
2017-02-02T01:42:21.515Z,-3.47
2017-02-02T01:43:34.555Z,-3.53
2017-02-02T01:44:47.598Z,-3.5
2017-02-02T01:46:00.597Z,-3.48
2017-02-02T01:47:13.240Z,-3.46
2017-02-02T01:48:25.857Z,-3.53
2017-02-02T01:49:38.910Z,-3.55
2017-02-02T01:50:51.920Z,-3.5
2017-02-02T01:52:04.953Z,-3.56
2017-02-02T01:53:18.001Z,-3.59
2017-02-02T01:54:31.018Z,-3.59
2017-02-02T01:55:44.038Z,-3.62
2017-02-02T01:56:57.051Z,-3.59
2017-02-02T01:58:09.706Z,-3.64
2017-02-02T01:59:22.724Z,-3.62
2017-02-02T02:00:35.719Z,-3.69
2017-02-02T02:01:48.969Z,-3.65
2017-02-02T02:03:02.013Z,-3.66
2017-02-02T02:04:15.010Z,-3.69
2017-02-02T02:05:28.009Z,-3.68
2017-02-02T02:06:41.034Z,-3.74
2017-02-02T02:07:54.047Z,-3.75
2017-02-02T02:09:07.048Z,-3.71
2017-02-02T02:10:20.083Z,-3.77
2017-02-02T02:11:33.111Z,-3.78
2017-02-02T02:12:46.132Z,-3.77
2017-02-02T02:13:59.120Z,-3.75
2017-02-02T02:15:12.145Z,-3.74
2017-02-02T02:16:25.141Z,-3.75
2017-02-02T02:17:38.140Z,-3.84
2017-02-02T02:18:51.162Z,-3.8
2017-02-02T02:20:04.200Z,-3.94
2017-02-02T02:21:16.446Z,-3.84
2017-02-02T02:22:29.477Z,-3.77
2017-02-02T02:23:42.491Z,-3.9
2017-02-02T02:24:55.487Z,-3.84
2017-02-02T02:26:08.488Z,-3.88
2017-02-02T02:27:21.531Z,-3.84
2017-02-02T02:28:34.528Z,-3.9
2017-02-02T02:29:47.551Z,-3.87
2017-02-02T02:31:00.571Z,-3.85
2017-02-02T02:32:13.243Z,-3.87
2017-02-02T02:33:26.262Z,-3.87
2017-02-02T02:34:39.281Z,-3.91
2017-02-02T02:35:52.300Z,-3.98
2017-02-02T02:37:05.300Z,-3.94
2017-02-02T02:38:18.318Z,-3.95
2017-02-02T02:39:31.322Z,-3.95
2017-02-02T02:40:44.310Z,-3.95
2017-02-02T02:41:57.307Z,-3.98
2017-02-02T02:43:10.322Z,-4.02
2017-02-02T02:44:23.346Z,-4.05
2017-02-02T02:45:36.372Z,-3.9
2017-02-02T02:46:49.384Z,-4.06
2017-02-02T02:48:02.385Z,-4.01
2017-02-02T02:49:15.434Z,-4.04
2017-02-02T02:50:28.479Z,-4.08
2017-02-02T02:51:41.502Z,-4.02
2017-02-02T02:52:54.547Z,-4.06
2017-02-02T02:54:07.585Z,-4.13
2017-02-02T02:55:19.839Z,-4.06
2017-02-02T02:56:32.855Z,-4.05
2017-02-02T02:57:45.852Z,-4.13
2017-02-02T02:58:58.848Z,-4.12
2017-02-02T03:00:11.851Z,-4.12
2017-02-02T03:01:24.868Z,-4.13
2017-02-02T03:02:37.886Z,-4.14
2017-02-02T03:03:50.882Z,-4.09
2017-02-02T03:05:03.923Z,-4.24
2017-02-02T03:06:16.953Z,-4.16
2017-02-02T03:07:29.971Z,-4.22
2017-02-02T03:08:42.611Z,-4.16
2017-02-02T03:09:55.635Z,-4.19
2017-02-02T03:11:08.656Z,-4.14
2017-02-02T03:12:21.674Z,-4.14
2017-02-02T03:13:34.948Z,-4.23
2017-02-02T03:14:47.971Z,-4.23
2017-02-02T03:16:00.965Z,-4.24
2017-02-02T03:17:13.210Z,-4.34
2017-02-02T03:18:26.510Z,-4.35
2017-02-02T03:19:39.533Z,-4.34
2017-02-02T03:20:52.553Z,-4.35
2017-02-02T03:22:05.567Z,-4.31
2017-02-02T03:23:18.193Z,-4.33
2017-02-02T03:24:31.214Z,-4.34
2017-02-02T03:25:44.260Z,-4.31
2017-02-02T03:26:57.282Z,-4.35
2017-02-02T03:28:10.303Z,-4.31
2017-02-02T03:29:23.324Z,-4.33
2017-02-02T03:30:36.361Z,-4.34
2017-02-02T03:31:49.365Z,-4.34
2017-02-02T03:33:02.435Z,-4.35
2017-02-02T03:34:15.455Z,-4.34
2017-02-02T03:35:28.076Z,-4.38
2017-02-02T03:36:41.119Z,-4.37
2017-02-02T03:37:54.118Z,-4.44
2017-02-02T03:39:07.141Z,-4.38
2017-02-02T03:40:20.186Z,-4.41
2017-02-02T03:41:33.213Z,-4.42
2017-02-02T03:42:46.251Z,-4.37
2017-02-02T03:43:59.271Z,-4.41
2017-02-02T03:45:12.294Z,-4.44
2017-02-02T03:46:25.312Z,-4.37
2017-02-02T03:47:38.307Z,-4.49
2017-02-02T03:48:51.320Z,-4.35
2017-02-02T03:50:04.328Z,-4.44
2017-02-02T03:51:17.225Z,-4.4
2017-02-02T03:52:29.865Z,-4.44
2017-02-02T03:53:42.867Z,-4.4
2017-02-02T03:54:55.886Z,-4.52
2017-02-02T03:56:08.924Z,-4.55
2017-02-02T03:57:21.577Z,-4.45
2017-02-02T03:58:34.225Z,-4.53
2017-02-02T03:59:47.245Z,-4.52
2017-02-02T04:01:00.266Z,-4.45
2017-02-02T04:02:12.913Z,-4.49
2017-02-02T04:03:25.554Z,-4.49
2017-02-02T04:04:38.553Z,-4.52
2017-02-02T04:05:51.562Z,-4.55
2017-02-02T04:07:04.196Z,-4.42
2017-02-02T04:08:17.245Z,-4.56
2017-02-02T04:09:29.886Z,-4.56
2017-02-02T04:10:42.904Z,-4.59
2017-02-02T04:11:55.921Z,-4.62
2017-02-02T04:13:08.950Z,-4.56
2017-02-02T04:14:21.994Z,-4.61
2017-02-02T04:15:35.041Z,-4.56
2017-02-02T04:16:48.061Z,-4.61
2017-02-02T04:18:01.076Z,-4.58
2017-02-02T04:19:13.700Z,-4.59
2017-02-02T04:20:26.699Z,-4.59
2017-02-02T04:21:39.722Z,-4.62
2017-02-02T04:22:52.840Z,-4.63
2017-02-02T04:24:05.884Z,-4.61
2017-02-02T04:25:18.908Z,-4.63
2017-02-02T04:26:31.950Z,-4.69
2017-02-02T04:27:44.546Z,-4.62
2017-02-02T04:28:57.566Z,-4.69
2017-02-02T04:30:10.591Z,-4.65
2017-02-02T04:31:23.609Z,-4.61
2017-02-02T04:32:36.258Z,-4.65
2017-02-02T04:33:49.303Z,-4.67
2017-02-02T04:35:02.329Z,-4.69
2017-02-02T04:36:15.344Z,-4.58
2017-02-02T04:37:28.341Z,-4.74
2017-02-02T04:38:41.365Z,-4.59
2017-02-02T04:39:54.031Z,-4.59
2017-02-02T04:41:06.676Z,-4.69
2017-02-02T04:42:19.696Z,-4.63
2017-02-02T04:43:32.697Z,-4.63
2017-02-02T04:44:45.737Z,-4.69
2017-02-02T04:45:58.744Z,-4.73
2017-02-02T04:47:11.784Z,-4.67
2017-02-02T04:48:24.801Z,-4.71
2017-02-02T04:49:37.798Z,-4.67
2017-02-02T04:50:50.797Z,-4.73
2017-02-02T04:52:03.689Z,-4.73
2017-02-02T04:53:16.689Z,-4.71
2017-02-02T04:54:29.730Z,-4.76
2017-02-02T04:55:42.725Z,-4.76
2017-02-02T04:56:55.752Z,-4.71
2017-02-02T04:58:08.792Z,-4.74
2017-02-02T04:59:21.819Z,-4.73
2017-02-02T05:00:34.839Z,-4.74
2017-02-02T05:01:47.859Z,-4.71
2017-02-02T05:03:00.876Z,-4.74
2017-02-02T05:04:13.491Z,-4.79
2017-02-02T05:05:26.521Z,-4.83
2017-02-02T05:06:39.543Z,-4.92
2017-02-02T05:07:52.835Z,-4.79
2017-02-02T05:09:05.832Z,-4.88
2017-02-02T05:10:18.476Z,-4.77
2017-02-02T05:11:31.121Z,-4.74
2017-02-02T05:12:44.143Z,-4.84
2017-02-02T05:13:57.193Z,-4.77
2017-02-02T05:15:09.828Z,-4.8
2017-02-02T05:16:22.842Z,-4.8
2017-02-02T05:17:35.886Z,-4.81
2017-02-02T05:18:48.926Z,-4.79
2017-02-02T05:20:01.974Z,-4.84
2017-02-02T05:21:14.242Z,-4.79
2017-02-02T05:22:27.235Z,-4.83
2017-02-02T05:23:40.285Z,-4.83
2017-02-02T05:24:53.302Z,-4.8
2017-02-02T05:26:05.950Z,-4.79
2017-02-02T05:27:18.215Z,-4.8
2017-02-02T05:28:31.239Z,-4.8
2017-02-02T05:29:44.260Z,-4.84
2017-02-02T05:30:57.260Z,-4.83
2017-02-02T05:32:09.902Z,-4.83
2017-02-02T05:33:22.940Z,-4.91
2017-02-02T05:34:35.947Z,-4.91
2017-02-02T05:35:48.965Z,-4.92
2017-02-02T05:37:01.989Z,-4.91
2017-02-02T05:38:15.031Z,-4.92
2017-02-02T05:39:28.053Z,-4.95
2017-02-02T05:40:41.352Z,-4.9
2017-02-02T05:41:54.372Z,-4.9
2017-02-02T05:43:07.416Z,-4.98
2017-02-02T05:44:20.431Z,-4.91
2017-02-02T05:45:33.440Z,-5.02
2017-02-02T05:46:46.455Z,-4.87
2017-02-02T05:47:59.454Z,-5
2017-02-02T05:49:12.499Z,-4.91
2017-02-02T05:50:25.536Z,-5.01
2017-02-02T05:51:38.562Z,-4.95
2017-02-02T05:52:51.560Z,-4.92
2017-02-02T05:54:04.580Z,-4.98
2017-02-02T05:55:17.627Z,-4.98
2017-02-02T05:56:30.263Z,-4.94
2017-02-02T05:57:43.292Z,-4.95
2017-02-02T05:58:56.314Z,-4.98
2017-02-02T06:00:09.336Z,-4.94
2017-02-02T06:01:22.354Z,-4.97
2017-02-02T06:02:35.349Z,-5
2017-02-02T06:03:48.370Z,-5
2017-02-02T06:05:01.395Z,-4.97
2017-02-02T06:06:14.416Z,-5.02
2017-02-02T06:07:27.433Z,-5
2017-02-02T06:08:40.434Z,-4.98
2017-02-02T06:09:53.450Z,-5
2017-02-02T06:11:06.471Z,-4.98
2017-02-02T06:12:19.495Z,-5.08
2017-02-02T06:13:32.513Z,-4.97
2017-02-02T06:14:45.504Z,-5
2017-02-02T06:15:58.503Z,-5.01
2017-02-02T06:17:11.138Z,-5.02
2017-02-02T06:18:24.174Z,-5.06
2017-02-02T06:19:37.192Z,-5.09
2017-02-02T06:20:50.191Z,-5.01
2017-02-02T06:22:03.208Z,-5.05
2017-02-02T06:23:16.233Z,-5.09
2017-02-02T06:24:29.249Z,-5.13
2017-02-02T06:25:42.246Z,-5.13
2017-02-02T06:26:55.241Z,-5.01
2017-02-02T06:28:07.883Z,-5.1
2017-02-02T06:29:20.509Z,-5.1
2017-02-02T06:30:33.104Z,-5.08
2017-02-02T06:31:46.100Z,-5.02
2017-02-02T06:32:59.124Z,-5
2017-02-02T06:34:12.137Z,-5.05
2017-02-02T06:35:25.144Z,-5.08
2017-02-02T06:36:38.163Z,-5.05
2017-02-02T06:37:51.203Z,-5.08
2017-02-02T06:39:04.226Z,-5.06
2017-02-02T06:40:17.249Z,-5.08
2017-02-02T06:41:29.895Z,-5.02
2017-02-02T06:42:42.913Z,-5.02
2017-02-02T06:43:55.909Z,-5.06
2017-02-02T06:45:08.929Z,-5.06
2017-02-02T06:46:21.951Z,-5.12
2017-02-02T06:47:35.000Z,-5.06
2017-02-02T06:48:48.023Z,-5.08
2017-02-02T06:50:01.063Z,-5.08
2017-02-02T06:51:14.076Z,-5.06
2017-02-02T06:52:27.084Z,-5.09
2017-02-02T06:53:40.130Z,-5.02
2017-02-02T06:54:53.151Z,-5.12
2017-02-02T06:56:06.170Z,-5.02
2017-02-02T06:57:18.791Z,-5.06
2017-02-02T06:58:31.836Z,-5.12
2017-02-02T06:59:44.838Z,-5.08
2017-02-02T07:00:57.480Z,-5.08
2017-02-02T07:02:09.722Z,-5
2017-02-02T07:03:22.746Z,-4.97
2017-02-02T07:04:35.363Z,-5.01
2017-02-02T07:05:48.387Z,-5.08
2017-02-02T07:07:01.398Z,-5.01
2017-02-02T07:08:14.426Z,-5.05
2017-02-02T07:09:27.447Z,-5.08
2017-02-02T07:10:40.072Z,-5.02
2017-02-02T07:11:53.089Z,-5.01
2017-02-02T07:13:06.110Z,-5.01
2017-02-02T07:14:18.731Z,-4.95
2017-02-02T07:15:31.345Z,-5
2017-02-02T07:16:44.351Z,-4.98
2017-02-02T07:17:57.371Z,-4.95
2017-02-02T07:19:10.017Z,-4.98
2017-02-02T07:20:23.038Z,-4.95
2017-02-02T07:21:35.701Z,-4.9
2017-02-02T07:22:48.728Z,-4.88
2017-02-02T07:24:01.752Z,-4.88
2017-02-02T07:25:14.775Z,-4.79
2017-02-02T07:26:27.843Z,-4.79
2017-02-02T07:27:40.489Z,-4.81
2017-02-02T07:28:53.512Z,-4.83
2017-02-02T07:30:06.545Z,-4.84
2017-02-02T07:31:19.551Z,-4.83
2017-02-02T07:32:32.568Z,-4.76
2017-02-02T07:33:45.189Z,-4.74
2017-02-02T07:34:58.203Z,-4.79
2017-02-02T07:36:10.437Z,-4.8
2017-02-02T07:37:23.131Z,-4.74
2017-02-02T07:38:35.773Z,-4.83
2017-02-02T07:39:48.776Z,-4.73
2017-02-02T07:41:01.794Z,-4.74
2017-02-02T07:42:14.838Z,-4.73
2017-02-02T07:43:27.861Z,-4.62
2017-02-02T07:44:40.903Z,-4.74
2017-02-02T07:45:53.928Z,-4.73
2017-02-02T07:47:06.970Z,-4.61
2017-02-02T07:48:19.966Z,-4.69
2017-02-02T07:49:33.014Z,-4.59
2017-02-02T07:50:46.034Z,-4.58
2017-02-02T07:51:58.653Z,-4.58
2017-02-02T07:53:11.304Z,-4.51
2017-02-02T07:54:24.321Z,-4.42
2017-02-02T07:55:37.348Z,-4.53
2017-02-02T07:56:50.366Z,-4.44
2017-02-02T07:58:03.389Z,-4.45
2017-02-02T07:59:16.031Z,-4.42
2017-02-02T08:00:29.077Z,-4.35
2017-02-02T08:01:42.102Z,-4.33
2017-02-02T08:02:55.145Z,-4.38
2017-02-02T08:04:08.161Z,-4.31
2017-02-02T08:05:21.157Z,-4.35
2017-02-02T08:06:33.782Z,-4.26
2017-02-02T08:07:46.799Z,-4.24
2017-02-02T08:08:59.821Z,-4.2
2017-02-02T08:10:12.432Z,-4.19
2017-02-02T08:11:25.091Z,-4.12
2017-02-02T08:12:38.133Z,-4.09
2017-02-02T08:13:51.155Z,-4.08
2017-02-02T08:15:04.154Z,-4.09
2017-02-02T08:16:17.218Z,-4.16
2017-02-02T08:17:30.267Z,-4.05
2017-02-02T08:18:42.517Z,-4.05
2017-02-02T08:19:55.555Z,-4.05
2017-02-02T08:21:08.603Z,-4.01
2017-02-02T08:22:21.605Z,-4.02
2017-02-02T08:23:34.621Z,-3.99
2017-02-02T08:24:47.637Z,-3.91
2017-02-02T08:26:00.668Z,-3.87
2017-02-02T08:27:13.688Z,-3.85
2017-02-02T08:28:26.697Z,-3.87
2017-02-02T08:29:39.329Z,-3.9
2017-02-02T08:30:52.348Z,-3.9
2017-02-02T08:32:05.375Z,-3.94
2017-02-02T08:33:18.392Z,-3.83
2017-02-02T08:34:31.412Z,-3.8
2017-02-02T08:35:44.430Z,-3.77
2017-02-02T08:36:57.448Z,-3.75
2017-02-02T08:38:10.447Z,-3.77
2017-02-02T08:39:23.472Z,-3.66
2017-02-02T08:40:36.142Z,-3.65
2017-02-02T08:41:48.779Z,-3.62
2017-02-02T08:43:01.809Z,-3.62
2017-02-02T08:44:14.851Z,-3.62
2017-02-02T08:45:27.855Z,-3.61
2017-02-02T08:46:40.489Z,-3.56
2017-02-02T08:47:53.513Z,-3.46
2017-02-02T08:49:06.514Z,-3.46
2017-02-02T08:50:19.559Z,-3.5
2017-02-02T08:51:32.581Z,-3.43
2017-02-02T08:52:45.625Z,-3.4
2017-02-02T08:53:58.647Z,-3.44
2017-02-02T08:55:11.692Z,-3.38
2017-02-02T08:56:24.710Z,-3.33
2017-02-02T08:57:38.004Z,-3.3
2017-02-02T08:58:50.649Z,-3.38
2017-02-02T09:00:03.715Z,-3.26
2017-02-02T09:01:16.770Z,-3.3
2017-02-02T09:02:29.813Z,-3.3
2017-02-02T09:03:42.839Z,-3.2
2017-02-02T09:04:55.886Z,-3.19
2017-02-02T09:06:08.152Z,-3.23
2017-02-02T09:07:21.191Z,-3.2
2017-02-02T09:08:34.198Z,-3.17
2017-02-02T09:09:46.875Z,-3.17
2017-02-02T09:10:59.885Z,-3.12
2017-02-02T09:12:12.508Z,-3.14
2017-02-02T09:13:25.127Z,-3.05
2017-02-02T09:14:38.124Z,-3.08
2017-02-02T09:15:50.778Z,-3.08
2017-02-02T09:17:03.817Z,-3.08
2017-02-02T09:18:16.836Z,-2.93
2017-02-02T09:19:29.855Z,-2.89
2017-02-02T09:20:42.856Z,-2.91
2017-02-02T09:21:55.874Z,-2.86
2017-02-02T09:23:08.869Z,-2.81
2017-02-02T09:24:21.897Z,-2.83
2017-02-02T09:25:34.511Z,-2.84
2017-02-02T09:26:47.508Z,-2.81
2017-02-02T09:28:00.527Z,-2.86
2017-02-02T09:29:13.544Z,-2.75
2017-02-02T09:30:26.580Z,-2.76
2017-02-02T09:31:39.593Z,-2.65
2017-02-02T09:32:52.614Z,-2.63
2017-02-02T09:34:05.631Z,-2.62
2017-02-02T09:35:18.635Z,-2.68
2017-02-02T09:36:31.676Z,-2.63
2017-02-02T09:37:44.721Z,-2.44
2017-02-02T09:38:57.746Z,-2.45
2017-02-02T09:40:10.764Z,-2.47
2017-02-02T09:41:23.806Z,-2.48
2017-02-02T09:42:36.835Z,-2.45
2017-02-02T09:43:49.876Z,-2.39
2017-02-02T09:45:02.922Z,-2.36
2017-02-02T09:46:15.598Z,-2.4
2017-02-02T09:47:28.611Z,-2.33
2017-02-02T09:48:41.656Z,-2.28
2017-02-02T09:49:54.681Z,-2.23
2017-02-02T09:51:07.702Z,-2.26
2017-02-02T09:52:20.744Z,-2.15
2017-02-02T09:53:33.396Z,-2.17
2017-02-02T09:54:46.437Z,-2.15
2017-02-02T09:55:59.085Z,-2.13
2017-02-02T09:57:11.728Z,-2.14
2017-02-02T09:58:24.778Z,-2.11
2017-02-02T09:59:37.864Z,-2.05
2017-02-02T10:00:50.889Z,-2.04
2017-02-02T10:02:03.516Z,-2.13
2017-02-02T10:03:16.558Z,-2.04
2017-02-02T10:04:29.582Z,-2.04
2017-02-02T10:05:42.633Z,-1.97
2017-02-02T10:06:55.670Z,-1.93
2017-02-02T10:08:07.919Z,-1.86
2017-02-02T10:09:20.938Z,-1.79
2017-02-02T10:10:33.957Z,-1.81
2017-02-02T10:11:46.583Z,-1.79
2017-02-02T10:12:59.624Z,-1.86
2017-02-02T10:14:12.246Z,-1.74
2017-02-02T10:15:25.265Z,-1.78
2017-02-02T10:16:37.962Z,-1.78
2017-02-02T10:17:50.985Z,-1.64
2017-02-02T10:19:04.049Z,-1.66
2017-02-02T10:20:17.080Z,-1.63
2017-02-02T10:21:30.122Z,-1.61
2017-02-02T10:22:42.745Z,-1.58
2017-02-02T10:23:55.779Z,-1.58
2017-02-02T10:25:08.414Z,-1.54
2017-02-02T10:26:21.456Z,-1.5
2017-02-02T10:27:34.494Z,-1.53
2017-02-02T10:28:47.145Z,-1.45
2017-02-02T10:30:00.170Z,-1.5
2017-02-02T10:31:12.457Z,-1.42
2017-02-02T10:32:25.536Z,-1.35
2017-02-02T10:33:38.174Z,-1.39
2017-02-02T10:34:51.204Z,-1.36
2017-02-02T10:36:03.874Z,-1.3
2017-02-02T10:37:16.516Z,-1.25
2017-02-02T10:38:29.562Z,-1.17
2017-02-02T10:39:42.586Z,-1.18
2017-02-02T10:40:55.606Z,-1.18
2017-02-02T10:42:08.646Z,-1.12
2017-02-02T10:43:21.697Z,-1
2017-02-02T10:44:34.743Z,-0.97
2017-02-02T10:45:47.016Z,-0.89
2017-02-02T10:47:00.059Z,-0.91
2017-02-02T10:48:12.711Z,-0.82
2017-02-02T10:49:25.730Z,-0.84
2017-02-02T10:50:38.775Z,-0.75
2017-02-02T10:51:51.822Z,-0.72
2017-02-02T10:53:04.841Z,-0.6
2017-02-02T10:54:17.891Z,-0.49
2017-02-02T10:55:30.934Z,-0.51
2017-02-02T10:56:43.980Z,-0.42
2017-02-02T10:57:56.998Z,-0.42
2017-02-02T10:59:09.663Z,-0.38
2017-02-02T11:00:22.740Z,-0.3
2017-02-02T11:01:35.759Z,-0.38
2017-02-02T11:02:48.006Z,-0.3
2017-02-02T11:04:01.004Z,-0.17
2017-02-02T11:05:13.665Z,-0.2
2017-02-02T11:06:26.671Z,-0.06
2017-02-02T11:07:39.722Z,-0.03
2017-02-02T11:08:52.761Z,-0.1
2017-02-02T11:10:05.424Z,-0.03
2017-02-02T11:11:17.696Z,0
2017-02-02T11:12:30.714Z,-0.02
2017-02-02T11:13:43.736Z,0.01
2017-02-02T11:14:56.744Z,0
2017-02-02T11:16:09.385Z,-0.05
2017-02-02T11:17:22.035Z,0.02
2017-02-02T11:18:34.320Z,0.06
2017-02-02T11:19:47.347Z,0.05
2017-02-02T11:21:00.372Z,0.11
2017-02-02T11:22:13.411Z,0.05
2017-02-02T11:23:26.461Z,0.06
2017-02-02T11:24:39.460Z,0.12
2017-02-02T11:25:52.478Z,0.06
2017-02-02T11:27:05.528Z,0.09
2017-02-02T11:28:18.168Z,0.06
2017-02-02T11:29:31.194Z,0.15
2017-02-02T11:30:44.238Z,0.18
2017-02-02T11:31:57.261Z,0.2
2017-02-02T11:33:09.896Z,0.15
2017-02-02T11:34:22.927Z,0.18
2017-02-02T11:35:35.594Z,0.2
2017-02-02T11:36:48.615Z,0.13
2017-02-02T11:38:01.639Z,0.16
2017-02-02T11:39:14.657Z,0.11
2017-02-02T11:40:27.679Z,0.09
2017-02-02T11:41:40.948Z,0.26
2017-02-02T11:42:53.971Z,0.23
2017-02-02T11:44:06.988Z,0.23
2017-02-02T11:45:19.619Z,0.23
2017-02-02T11:46:32.659Z,0.3
2017-02-02T11:47:45.706Z,0.36
2017-02-02T11:48:58.351Z,0.4
2017-02-02T11:50:11.371Z,0.42
2017-02-02T11:51:24.394Z,0.36
2017-02-02T11:52:37.490Z,0.4
2017-02-02T11:53:50.135Z,0.47
2017-02-02T11:55:03.128Z,0.42
2017-02-02T11:56:14.621Z,0.37
2017-02-02T11:57:27.675Z,0.47
2017-02-02T11:58:40.776Z,0.49
2017-02-02T11:59:53.412Z,0.52
2017-02-02T12:01:06.437Z,0.4
2017-02-02T12:02:19.457Z,0.51
2017-02-02T12:03:32.105Z,0.45
2017-02-02T12:04:45.147Z,0.52
2017-02-02T12:05:58.191Z,0.51
2017-02-02T12:07:11.217Z,0.51
2017-02-02T12:08:24.257Z,0.49
2017-02-02T12:09:37.324Z,0.4
2017-02-02T12:10:50.354Z,0.49
2017-02-02T12:12:03.416Z,0.39
2017-02-02T12:13:16.446Z,0.36
2017-02-02T12:14:29.491Z,0.44
2017-02-02T12:15:42.540Z,0.36
2017-02-02T12:16:55.583Z,0.4
2017-02-02T12:18:07.844Z,0.37
2017-02-02T12:19:20.103Z,0.39
2017-02-02T12:20:33.118Z,0.4
2017-02-02T12:21:46.138Z,0.4
2017-02-02T12:22:59.183Z,0.37
2017-02-02T12:24:11.832Z,0.44
2017-02-02T12:25:24.877Z,0.4
2017-02-02T12:26:37.496Z,0.4
2017-02-02T12:27:50.517Z,0.4
2017-02-02T12:29:03.512Z,0.48
2017-02-02T12:30:16.151Z,0.48
2017-02-02T12:31:28.806Z,0.49
2017-02-02T12:32:41.848Z,0.44
2017-02-02T12:33:54.878Z,0.47
2017-02-02T12:35:07.170Z,0.49
2017-02-02T12:36:19.813Z,0.56
2017-02-02T12:37:32.462Z,0.55
2017-02-02T12:38:45.485Z,0.55
2017-02-02T12:39:58.508Z,0.48
2017-02-02T12:41:10.765Z,0.55
2017-02-02T12:42:23.792Z,0.64
2017-02-02T12:43:36.471Z,0.58
2017-02-02T12:44:49.512Z,0.59
2017-02-02T12:46:02.556Z,0.56
2017-02-02T12:47:14.810Z,0.61
2017-02-02T12:48:27.829Z,0.67
2017-02-02T12:49:40.844Z,0.64
2017-02-02T12:50:53.839Z,0.63
2017-02-02T12:52:06.869Z,0.56
2017-02-02T12:53:19.535Z,0.7
2017-02-02T12:54:32.202Z,0.7
2017-02-02T12:55:45.248Z,0.63
2017-02-02T12:56:57.497Z,0.63
2017-02-02T12:58:10.518Z,0.64
2017-02-02T12:59:23.564Z,0.64
2017-02-02T13:00:36.585Z,0.63
2017-02-02T13:01:49.232Z,0.59
2017-02-02T13:03:02.278Z,0.64
2017-02-02T13:04:14.944Z,0.59
2017-02-02T13:05:28.020Z,0.58
2017-02-02T13:06:41.061Z,0.63
2017-02-02T13:07:53.682Z,0.61
2017-02-02T13:09:06.684Z,0.66
2017-02-02T13:10:19.717Z,0.76
2017-02-02T13:11:32.720Z,0.66
2017-02-02T13:12:45.744Z,0.74
2017-02-02T13:13:58.778Z,0.71
2017-02-02T13:15:11.817Z,0.7
2017-02-02T13:16:24.832Z,0.78
2017-02-02T13:17:37.880Z,0.76
2017-02-02T13:18:50.520Z,0.76
2017-02-02T13:20:03.571Z,0.77
2017-02-02T13:21:16.585Z,0.77
2017-02-02T13:22:29.581Z,0.71
2017-02-02T13:23:42.670Z,0.71
2017-02-02T13:24:55.692Z,0.77
2017-02-02T13:26:08.723Z,0.77
2017-02-02T13:27:21.344Z,0.77
2017-02-02T13:28:34.361Z,0.81
2017-02-02T13:29:47.385Z,0.78
2017-02-02T13:31:00.432Z,0.73
2017-02-02T13:32:12.698Z,0.81
2017-02-02T13:33:25.713Z,0.84
2017-02-02T13:34:38.741Z,0.76
2017-02-02T13:35:51.739Z,0.86
2017-02-02T13:37:04.385Z,0.81
2017-02-02T13:38:17.433Z,0.88
2017-02-02T13:39:30.479Z,0.89
2017-02-02T13:40:43.529Z,0.86
2017-02-02T13:41:56.570Z,0.91
2017-02-02T13:43:09.632Z,1.03
2017-02-02T13:44:22.662Z,0.91
2017-02-02T13:45:35.334Z,1.02
2017-02-02T13:46:48.378Z,1.02
2017-02-02T13:48:01.024Z,1.04
2017-02-02T13:49:13.293Z,1.04
2017-02-02T13:50:26.330Z,1.03
2017-02-02T13:51:39.365Z,1
2017-02-02T13:52:52.404Z,1.07
2017-02-02T13:54:05.441Z,1.06
2017-02-02T13:55:18.125Z,1.09
2017-02-02T13:56:30.763Z,1.07
2017-02-02T13:57:43.792Z,1.06
2017-02-02T13:58:56.831Z,1.04
2017-02-02T14:00:09.888Z,1.06
2017-02-02T14:01:22.933Z,1.04
2017-02-02T14:02:35.950Z,1.06
2017-02-02T14:03:48.998Z,1.04
2017-02-02T14:05:02.046Z,1.07
2017-02-02T14:06:15.090Z,1.06
2017-02-02T14:07:28.134Z,1.06
2017-02-02T14:08:41.183Z,1.02
2017-02-02T14:09:54.222Z,0.99
2017-02-02T14:11:07.243Z,1.03
2017-02-02T14:12:20.264Z,1.07
2017-02-02T14:13:33.293Z,1.06
2017-02-02T14:14:46.330Z,1.09
2017-02-02T14:15:59.356Z,1.06
2017-02-02T14:17:12.375Z,1.07
2017-02-02T14:18:25.424Z,1.04
2017-02-02T14:19:38.441Z,0.99
2017-02-02T14:20:51.461Z,1.06
2017-02-02T14:22:04.476Z,1.07
2017-02-02T14:23:17.506Z,1.04
2017-02-02T14:24:30.152Z,1
2017-02-02T14:25:43.196Z,1.06
2017-02-02T14:26:55.467Z,1.09
2017-02-02T14:28:08.492Z,1.1
2017-02-02T14:29:21.531Z,1.03
2017-02-02T14:30:34.536Z,1.13
2017-02-02T14:31:47.603Z,1.04
2017-02-02T14:33:00.275Z,1.07
2017-02-02T14:34:13.290Z,1.06
2017-02-02T14:35:25.948Z,1.06
2017-02-02T14:36:39.034Z,1.13
2017-02-02T14:37:52.088Z,1.18
2017-02-02T14:39:05.098Z,1.06
2017-02-02T14:40:17.723Z,1.13
2017-02-02T14:41:30.765Z,1.13
2017-02-02T14:42:43.766Z,1.07
2017-02-02T14:43:56.807Z,1.14
2017-02-02T14:45:09.470Z,1.16
2017-02-02T14:46:22.502Z,1
2017-02-02T14:47:35.548Z,1.14
2017-02-02T14:48:48.593Z,1.14
2017-02-02T14:50:00.837Z,1.2
2017-02-02T14:51:13.461Z,1.14
2017-02-02T14:52:26.527Z,1.06
2017-02-02T14:53:39.548Z,1.09
2017-02-02T14:54:52.571Z,1.06
2017-02-02T14:56:05.617Z,1
2017-02-02T14:57:18.277Z,1.03
2017-02-02T14:58:31.310Z,1.04
2017-02-02T14:59:44.357Z,1.04
2017-02-02T15:00:56.999Z,1.04
2017-02-02T15:02:10.044Z,1.03
2017-02-02T15:03:23.065Z,1.06
2017-02-02T15:04:35.714Z,1.06
2017-02-02T15:05:48.738Z,0.99
2017-02-02T15:07:01.755Z,0.99
2017-02-02T15:08:14.792Z,1.07
2017-02-02T15:09:27.446Z,1
2017-02-02T15:10:40.463Z,0.99
2017-02-02T15:11:53.112Z,0.96
2017-02-02T15:13:06.133Z,1
2017-02-02T15:14:19.178Z,0.99
2017-02-02T15:15:32.226Z,0.96
2017-02-02T15:16:45.271Z,0.92
2017-02-02T15:17:58.287Z,1.06
2017-02-02T15:19:11.312Z,0.96
2017-02-02T15:20:24.347Z,0.91
2017-02-02T15:21:37.379Z,0.91
2017-02-02T15:22:50.396Z,0.96
2017-02-02T15:24:03.395Z,0.94
2017-02-02T15:25:16.039Z,0.96
2017-02-02T15:26:29.035Z,0.96
2017-02-02T15:27:41.684Z,0.99
2017-02-02T15:28:54.747Z,0.88
2017-02-02T15:30:07.395Z,0.94
2017-02-02T15:31:19.668Z,0.96
2017-02-02T15:32:32.717Z,1.02
2017-02-02T15:33:44.986Z,1.03
2017-02-02T15:34:57.634Z,0.95
2017-02-02T15:36:10.276Z,0.99
2017-02-02T15:37:23.296Z,0.89
2017-02-02T15:38:35.943Z,0.96
2017-02-02T15:39:48.988Z,0.89
2017-02-02T15:41:01.613Z,0.89
2017-02-02T15:42:14.634Z,0.99
2017-02-02T15:43:27.650Z,0.88
2017-02-02T15:44:40.701Z,1
2017-02-02T15:45:53.711Z,1
2017-02-02T15:47:06.738Z,0.95
2017-02-02T15:48:19.762Z,0.95
2017-02-02T15:49:32.810Z,0.95
2017-02-02T15:50:45.828Z,0.99
2017-02-02T15:51:58.851Z,0.99
2017-02-02T15:53:11.911Z,0.96